^^
Saratoga-Weather Station Historical Data
Daily Summary for March 25, 2020 Units:  Both    English   Metric
Daily Weekly Monthly Yearly Custom
  High: Low: Average:
Temperature: 44.2 °F /  6.8 °C 35.1 °F /  1.7 °C 39.2 °F /  4 °C
Dew Point: 42.1 °F /  5.6 °C 34 °F /  1.1 °C 37.9 °F /  3.3 °C
Humidity: 96% 89% 95%
Wind Speed: 4mph /  6.4km/h - 0.6mph /  1km/h
Wind Gust: 7mph /  11.3km/h - -
Wind- - ESE
Pressure: 30.1 in /  1020.7 hPa 30.1 in /  1018.0 hPa -
Precipitation: 0 in /  0.0 mm    
Historical Graphs
 
 
Tabular Data for March 25, 2020
Time Temperature Dew Point Pressure Wind Wind Speed Wind Gust Humidity Rainfall Rate (Hourly) solar
00:04 39 °F /  3.9 °C 37.8 °F /  3.2 °C 30.1in /  1020.0hPa East 2mph /  3.2km/h 7mph /  11.3km/h 95% 0in /  0.0mm 0 W/m2
00:09 39 °F /  3.9 °C 37.8 °F /  3.2 °C 30.1in /  1020.0hPa Calm   3mph /  4.8km/h 95% 0in /  0.0mm 0 W/m2
00:14 39 °F /  3.9 °C 37.8 °F /  3.2 °C 30.1in /  1019.6hPa East 2mph /  3.2km/h 7mph /  11.3km/h 95% 0in /  0.0mm 0 W/m2
00:19 39 °F /  3.9 °C 37.9 °F /  3.3 °C 30.1in /  1019.6hPa SE 0.9mph /  1.4km/h 2mph /  3.2km/h 96% 0in /  0.0mm 0 W/m2
00:24 39 °F /  3.9 °C 37.9 °F /  3.3 °C 30.1in /  1019.6hPa Calm   7mph /  11.3km/h 96% 0in /  0.0mm 0 W/m2
00:29 39 °F /  3.9 °C 37.9 °F /  3.3 °C 30.1in /  1019.6hPa Calm   2mph /  3.2km/h 96% 0in /  0.0mm 0 W/m2
00:34 39 °F /  3.9 °C 37.9 °F /  3.3 °C 30.1in /  1019.6hPa East 2mph /  3.2km/h 3mph /  4.8km/h 96% 0in /  0.0mm 0 W/m2
00:39 39 °F /  3.9 °C 37.9 °F /  3.3 °C 30.1in /  1019.6hPa East 2mph /  3.2km/h 3mph /  4.8km/h 96% 0in /  0.0mm 0 W/m2
00:44 39 °F /  3.9 °C 37.9 °F /  3.3 °C 30.1in /  1019.6hPa ESE 2mph /  3.2km/h 4mph /  6.4km/h 96% 0in /  0.0mm 0 W/m2
00:49 39 °F /  3.9 °C 37.9 °F /  3.3 °C 30.1in /  1019.6hPa East 2mph /  3.2km/h 4mph /  6.4km/h 96% 0in /  0.0mm 0 W/m2
00:54 39 °F /  3.9 °C 37.9 °F /  3.3 °C 30.1in /  1019.3hPa ESE 4mph /  6.4km/h 4mph /  6.4km/h 96% 0in /  0.0mm 0 W/m2
00:59 38.8 °F /  3.8 °C 37.8 °F /  3.2 °C 30.1in /  1019.3hPa ESE 2mph /  3.2km/h 4mph /  6.4km/h 96% 0in /  0.0mm 0 W/m2
01:04 38.8 °F /  3.8 °C 37.8 °F /  3.2 °C 30.1in /  1019.3hPa East 2.9mph /  4.7km/h 4mph /  6.4km/h 96% 0in /  0.0mm 0 W/m2
01:09 38.8 °F /  3.8 °C 37.8 °F /  3.2 °C 30.1in /  1019.3hPa SE 2mph /  3.2km/h 4mph /  6.4km/h 96% 0in /  0.0mm 0 W/m2
01:14 38.8 °F /  3.8 °C 37.8 °F /  3.2 °C 30.1in /  1019.3hPa ESE 0.9mph /  1.4km/h 4mph /  6.4km/h 96% 0in /  0.0mm 0 W/m2
01:20 38.8 °F /  3.8 °C 37.8 °F /  3.2 °C 30.1in /  1019.3hPa East 2.9mph /  4.7km/h 5mph /  8km/h 96% 0in /  0.0mm 0 W/m2
01:25 38.8 °F /  3.8 °C 37.8 °F /  3.2 °C 30.1in /  1019.3hPa East 0.9mph /  1.4km/h 6mph /  9.7km/h 96% 0in /  0.0mm 0 W/m2
01:30 38.8 °F /  3.8 °C 37.8 °F /  3.2 °C 30.1in /  1019.3hPa ESE 2.9mph /  4.7km/h 5mph /  8km/h 96% 0in /  0.0mm 0 W/m2
01:35 38.8 °F /  3.8 °C 37.8 °F /  3.2 °C 30.1in /  1019.0hPa East 2mph /  3.2km/h 3mph /  4.8km/h 96% 0in /  0.0mm 0 W/m2
01:40 38.8 °F /  3.8 °C 37.8 °F /  3.2 °C 30.1in /  1019.0hPa Calm   3mph /  4.8km/h 96% 0in /  0.0mm 0 W/m2
01:45 38.8 °F /  3.8 °C 37.8 °F /  3.2 °C 30.1in /  1019.0hPa East 2.9mph /  4.7km/h 7mph /  11.3km/h 96% 0in /  0.0mm 0 W/m2
01:50 38.8 °F /  3.8 °C 37.8 °F /  3.2 °C 30.1in /  1019.0hPa East 2mph /  3.2km/h 4mph /  6.4km/h 96% 0in /  0.0mm 0 W/m2
01:55 38.7 °F /  3.7 °C 37.6 °F /  3.1 °C 30.1in /  1019.0hPa ESE 0.9mph /  1.4km/h 3mph /  4.8km/h 96% 0in /  0.0mm 0 W/m2
02:00 38.8 °F /  3.8 °C 37.8 °F /  3.2 °C 30.1in /  1019.0hPa Calm   2mph /  3.2km/h 96% 0in /  0.0mm 0 W/m2
02:05 38.8 °F /  3.8 °C 37.8 °F /  3.2 °C 30.1in /  1019.0hPa ESE 0.9mph /  1.4km/h 1mph /  1.6km/h 96% 0in /  0.0mm 0 W/m2
02:10 38.8 °F /  3.8 °C 37.8 °F /  3.2 °C 30.1in /  1019.0hPa ENE 0.9mph /  1.4km/h 3mph /  4.8km/h 96% 0in /  0.0mm 0 W/m2
02:15 38.8 °F /  3.8 °C 37.8 °F /  3.2 °C 30.1in /  1019.0hPa East 0.9mph /  1.4km/h 2mph /  3.2km/h 96% 0in /  0.0mm 0 W/m2
02:20 38.8 °F /  3.8 °C 37.8 °F /  3.2 °C 30.1in /  1019.0hPa East 0.9mph /  1.4km/h 2mph /  3.2km/h 96% 0in /  0.0mm 0 W/m2
02:25 38.8 °F /  3.8 °C 37.8 °F /  3.2 °C 30.1in /  1018.6hPa ESE 0.9mph /  1.4km/h 3mph /  4.8km/h 96% 0in /  0.0mm 0 W/m2
02:30 38.8 °F /  3.8 °C 37.8 °F /  3.2 °C 30.1in /  1019.0hPa SE 0.9mph /  1.4km/h 4mph /  6.4km/h 96% 0in /  0.0mm 0 W/m2
02:35 38.8 °F /  3.8 °C 37.8 °F /  3.2 °C 30.1in /  1019.0hPa East 0.9mph /  1.4km/h 3mph /  4.8km/h 96% 0in /  0.0mm 0 W/m2
02:40 38.8 °F /  3.8 °C 37.8 °F /  3.2 °C 30.1in /  1019.0hPa East 0.9mph /  1.4km/h 2mph /  3.2km/h 96% 0in /  0.0mm 0 W/m2
02:45 38.8 °F /  3.8 °C 37.8 °F /  3.2 °C 30.1in /  1018.6hPa ESE 2mph /  3.2km/h 2mph /  3.2km/h 96% 0in /  0.0mm 0 W/m2
02:50 38.8 °F /  3.8 °C 37.8 °F /  3.2 °C 30.1in /  1018.6hPa ENE 2mph /  3.2km/h 2mph /  3.2km/h 96% 0in /  0.0mm 0 W/m2
02:55 38.8 °F /  3.8 °C 37.8 °F /  3.2 °C 30.1in /  1019.0hPa ENE 0.9mph /  1.4km/h 3mph /  4.8km/h 96% 0in /  0.0mm 0 W/m2
03:00 38.8 °F /  3.8 °C 37.8 °F /  3.2 °C 30.1in /  1019.0hPa ENE 2mph /  3.2km/h 2mph /  3.2km/h 96% 0in /  0.0mm 0 W/m2
03:05 38.8 °F /  3.8 °C 37.8 °F /  3.2 °C 30.1in /  1018.6hPa East 2mph /  3.2km/h 3mph /  4.8km/h 96% 0in /  0.0mm 0 W/m2
03:11 38.8 °F /  3.8 °C 37.8 °F /  3.2 °C 30.1in /  1018.6hPa SE 2mph /  3.2km/h 2mph /  3.2km/h 96% 0in /  0.0mm 0 W/m2
03:16 38.8 °F /  3.8 °C 37.8 °F /  3.2 °C 30.1in /  1018.6hPa Calm   3mph /  4.8km/h 96% 0in /  0.0mm 0 W/m2
03:21 38.7 °F /  3.7 °C 37.6 °F /  3.1 °C 30.1in /  1018.6hPa East 2mph /  3.2km/h 4mph /  6.4km/h 96% 0in /  0.0mm 0 W/m2
03:26 38.7 °F /  3.7 °C 37.6 °F /  3.1 °C 30.1in /  1018.6hPa East 0.9mph /  1.4km/h 3mph /  4.8km/h 96% 0in /  0.0mm 0 W/m2
03:31 38.7 °F /  3.7 °C 37.6 °F /  3.1 °C 30.1in /  1018.6hPa ESE 0.9mph /  1.4km/h 4mph /  6.4km/h 96% 0in /  0.0mm 0 W/m2
03:36 38.7 °F /  3.7 °C 37.6 °F /  3.1 °C 30.1in /  1018.6hPa East 2mph /  3.2km/h 2mph /  3.2km/h 96% 0in /  0.0mm 0 W/m2
03:41 38.7 °F /  3.7 °C 37.6 °F /  3.1 °C 30.1in /  1018.3hPa East 2mph /  3.2km/h 3mph /  4.8km/h 96% 0in /  0.0mm 0 W/m2
03:46 38.7 °F /  3.7 °C 37.6 °F /  3.1 °C 30.1in /  1018.3hPa ESE 0.9mph /  1.4km/h 1mph /  1.6km/h 96% 0in /  0.0mm 0 W/m2
03:51 38.7 °F /  3.7 °C 37.6 °F /  3.1 °C 30.1in /  1018.6hPa East 0.9mph /  1.4km/h 4mph /  6.4km/h 96% 0in /  0.0mm 0 W/m2
03:56 38.7 °F /  3.7 °C 37.6 °F /  3.1 °C 30.1in /  1018.3hPa East 0.9mph /  1.4km/h 3mph /  4.8km/h 96% 0in /  0.0mm 0 W/m2
04:01 38.7 °F /  3.7 °C 37.6 °F /  3.1 °C 30.1in /  1018.3hPa ESE 2mph /  3.2km/h 4mph /  6.4km/h 96% 0in /  0.0mm 0 W/m2
04:06 38.7 °F /  3.7 °C 37.6 °F /  3.1 °C 30.1in /  1018.3hPa ESE 2mph /  3.2km/h 6mph /  9.7km/h 96% 0in /  0.0mm 0 W/m2
04:11 38.5 °F /  3.6 °C 37.4 °F /  3 °C 30.1in /  1018.3hPa East 2mph /  3.2km/h 3mph /  4.8km/h 96% 0in /  0.0mm 0 W/m2
04:16 38.7 °F /  3.7 °C 37.6 °F /  3.1 °C 30.1in /  1018.3hPa East 0.9mph /  1.4km/h 6mph /  9.7km/h 96% 0in /  0.0mm 0 W/m2
04:21 38.5 °F /  3.6 °C 37.4 °F /  3 °C 30.1in /  1018.3hPa East 2mph /  3.2km/h 2mph /  3.2km/h 96% 0in /  0.0mm 0 W/m2
04:26 38.5 °F /  3.6 °C 37.4 °F /  3 °C 30.1in /  1018.3hPa SE 0.9mph /  1.4km/h 7mph /  11.3km/h 96% 0in /  0.0mm 0 W/m2
04:31 38.5 °F /  3.6 °C 37.4 °F /  3 °C 30.1in /  1018.3hPa ENE 2mph /  3.2km/h 3mph /  4.8km/h 96% 0in /  0.0mm 0 W/m2
04:36 38.5 °F /  3.6 °C 37.4 °F /  3 °C 30.1in /  1018.0hPa SE 0.9mph /  1.4km/h 2mph /  3.2km/h 96% 0in /  0.0mm 0 W/m2
04:41 38.5 °F /  3.6 °C 37.4 °F /  3 °C 30.1in /  1018.3hPa ENE 0.9mph /  1.4km/h 3mph /  4.8km/h 96% 0in /  0.0mm 0 W/m2
04:46 38.5 °F /  3.6 °C 37.4 °F /  3 °C 30.1in /  1018.3hPa ESE 2mph /  3.2km/h 3mph /  4.8km/h 96% 0in /  0.0mm 0 W/m2
04:51 38.5 °F /  3.6 °C 37.4 °F /  3 °C 30.1in /  1018.0hPa ESE 2mph /  3.2km/h 6mph /  9.7km/h 96% 0in /  0.0mm 0 W/m2
04:56 38.5 °F /  3.6 °C 37.4 °F /  3 °C 30.1in /  1018.0hPa ESE 2mph /  3.2km/h 4mph /  6.4km/h 96% 0in /  0.0mm 0 W/m2
05:01 38.5 °F /  3.6 °C 37.4 °F /  3 °C 30.1in /  1018.0hPa Calm   1mph /  1.6km/h 96% 0in /  0.0mm 0 W/m2
05:06 38.5 °F /  3.6 °C 37.4 °F /  3 °C 30.1in /  1018.3hPa SE 0.9mph /  1.4km/h 5mph /  8km/h 96% 0in /  0.0mm 0 W/m2
05:11 38.5 °F /  3.6 °C 37.4 °F /  3 °C 30.1in /  1018.3hPa Calm   2mph /  3.2km/h 96% 0in /  0.0mm 0 W/m2
05:16 38.5 °F /  3.6 °C 37.4 °F /  3 °C 30.1in /  1018.3hPa ESE 2mph /  3.2km/h 3mph /  4.8km/h 96% 0in /  0.0mm 0 W/m2
05:21 38.5 °F /  3.6 °C 37.4 °F /  3 °C 30.1in /  1018.3hPa ESE 2mph /  3.2km/h 3mph /  4.8km/h 96% 0in /  0.0mm 0 W/m2
05:26 38.5 °F /  3.6 °C 37.4 °F /  3 °C 30.1in /  1018.3hPa East 0.9mph /  1.4km/h 4mph /  6.4km/h 96% 0in /  0.0mm 0 W/m2
05:31 38.5 °F /  3.6 °C 37.4 °F /  3 °C 30.1in /  1018.3hPa SE 2mph /  3.2km/h 6mph /  9.7km/h 96% 0in /  0.0mm 0 W/m2
05:36 38.5 °F /  3.6 °C 37.4 °F /  3 °C 30.1in /  1018.3hPa ESE 2mph /  3.2km/h 2mph /  3.2km/h 96% 0in /  0.0mm 0 W/m2
05:41 38.5 °F /  3.6 °C 37.4 °F /  3 °C 30.1in /  1018.3hPa ESE 0.9mph /  1.4km/h 6mph /  9.7km/h 96% 0in /  0.0mm 0 W/m2
05:46 38.5 °F /  3.6 °C 37.4 °F /  3 °C 30.1in /  1018.3hPa ENE 2mph /  3.2km/h 3mph /  4.8km/h 96% 0in /  0.0mm 0 W/m2
05:51 38.5 °F /  3.6 °C 37.4 °F /  3 °C 30.1in /  1018.3hPa East 0.9mph /  1.4km/h 3mph /  4.8km/h 96% 0in /  0.0mm 0 W/m2
05:56 38.5 °F /  3.6 °C 37.4 °F /  3 °C 30.1in /  1018.3hPa East 0.9mph /  1.4km/h 1mph /  1.6km/h 96% 0in /  0.0mm 0 W/m2
06:01 38.5 °F /  3.6 °C 37.4 °F /  3 °C 30.1in /  1018.3hPa ESE 0.9mph /  1.4km/h 2mph /  3.2km/h 96% 0in /  0.0mm 0 W/m2
06:06 38.5 °F /  3.6 °C 37.4 °F /  3 °C 30.1in /  1018.3hPa ESE 0.9mph /  1.4km/h 1mph /  1.6km/h 96% 0in /  0.0mm 0 W/m2
06:11 38.5 °F /  3.6 °C 37.4 °F /  3 °C 30.1in /  1018.3hPa Calm   2mph /  3.2km/h 96% 0in /  0.0mm 0 W/m2
06:16 38.5 °F /  3.6 °C 37.4 °F /  3 °C 30.1in /  1018.3hPa ENE 0.9mph /  1.4km/h 3mph /  4.8km/h 96% 0in /  0.0mm 0 W/m2
06:21 38.5 °F /  3.6 °C 37.4 °F /  3 °C 30.1in /  1018.3hPa Calm   3mph /  4.8km/h 96% 0in /  0.0mm 0 W/m2
06:26 38.5 °F /  3.6 °C 37.4 °F /  3 °C 30.1in /  1018.3hPa East 0.9mph /  1.4km/h 2mph /  3.2km/h 96% 0in /  0.0mm 0 W/m2
06:31 38.3 °F /  3.5 °C 37.2 °F /  2.9 °C 30.1in /  1018.3hPa East 0.9mph /  1.4km/h 2mph /  3.2km/h 96% 0in /  0.0mm 0 W/m2
06:36 38.3 °F /  3.5 °C 37.2 °F /  2.9 °C 30.1in /  1018.3hPa SE 0.9mph /  1.4km/h 1mph /  1.6km/h 96% 0in /  0.0mm 0 W/m2
06:41 38.3 °F /  3.5 °C 37.2 °F /  2.9 °C 30.1in /  1018.3hPa ESE 2mph /  3.2km/h 3mph /  4.8km/h 96% 0in /  0.0mm 0 W/m2
06:46 38.3 °F /  3.5 °C 37.2 °F /  2.9 °C 30.1in /  1018.3hPa SE 0.9mph /  1.4km/h 3mph /  4.8km/h 96% 0in /  0.0mm 0 W/m2
06:51 38.1 °F /  3.4 °C 37 °F /  2.8 °C 30.1in /  1018.3hPa SE 2.9mph /  4.7km/h 4mph /  6.4km/h 96% 0in /  0.0mm 0 W/m2
06:56 38.1 °F /  3.4 °C 37 °F /  2.8 °C 30.1in /  1018.3hPa Calm     96% 0in /  0.0mm 0 W/m2
07:01 38.1 °F /  3.4 °C 37 °F /  2.8 °C 30.1in /  1018.3hPa East 4mph /  6.4km/h 4mph /  6.4km/h 96% 0in /  0.0mm 0 W/m2
07:06 38.1 °F /  3.4 °C 37 °F /  2.8 °C 30.1in /  1018.3hPa East 0.9mph /  1.4km/h 6mph /  9.7km/h 96% 0in /  0.0mm 0 W/m2
07:11 38.1 °F /  3.4 °C 37 °F /  2.8 °C 30.1in /  1018.3hPa East 2mph /  3.2km/h 3mph /  4.8km/h 96% 0in /  0.0mm 0 W/m2
07:16 38.1 °F /  3.4 °C 37 °F /  2.8 °C 30.1in /  1018.3hPa ESE 0.9mph /  1.4km/h 1mph /  1.6km/h 96% 0in /  0.0mm 0 W/m2
07:21 37.9 °F /  3.3 °C 36.9 °F /  2.7 °C 30.1in /  1018.3hPa ESE 0.9mph /  1.4km/h 2mph /  3.2km/h 96% 0in /  0.0mm 0 W/m2
07:26 37.9 °F /  3.3 °C 36.9 °F /  2.7 °C 30.1in /  1018.6hPa ESE 0.9mph /  1.4km/h 3mph /  4.8km/h 96% 0in /  0.0mm 0 W/m2
07:31 37.9 °F /  3.3 °C 36.9 °F /  2.7 °C 30.1in /  1018.3hPa Calm   2mph /  3.2km/h 96% 0in /  0.0mm 0 W/m2
07:36 37.9 °F /  3.3 °C 36.9 °F /  2.7 °C 30.1in /  1018.3hPa East 2mph /  3.2km/h 2mph /  3.2km/h 96% 0in /  0.0mm 0 W/m2
07:41 37.9 °F /  3.3 °C 36.9 °F /  2.7 °C 30.1in /  1018.6hPa ESE 0.9mph /  1.4km/h 3mph /  4.8km/h 96% 0in /  0.0mm 0 W/m2
07:46 37.8 °F /  3.2 °C 36.7 °F /  2.6 °C 30.1in /  1018.6hPa SE 0.9mph /  1.4km/h 3mph /  4.8km/h 96% 0in /  0.0mm 0 W/m2
07:51 37.8 °F /  3.2 °C 36.7 °F /  2.6 °C 30.1in /  1018.6hPa SE 0.9mph /  1.4km/h 2mph /  3.2km/h 96% 0in /  0.0mm 0 W/m2
07:56 37.8 °F /  3.2 °C 36.7 °F /  2.6 °C 30.1in /  1018.6hPa Calm   2mph /  3.2km/h 96% 0in /  0.0mm 0 W/m2
08:01 37.8 °F /  3.2 °C 36.7 °F /  2.6 °C 30.1in /  1018.6hPa Calm   2mph /  3.2km/h 96% 0in /  0.0mm 0 W/m2
08:06 37.8 °F /  3.2 °C 36.7 °F /  2.6 °C 30.1in /  1019.0hPa East 0.9mph /  1.4km/h 2mph /  3.2km/h 96% 0in /  0.0mm 0 W/m2
08:11 37.8 °F /  3.2 °C 36.7 °F /  2.6 °C 30.1in /  1019.0hPa ESE 0.9mph /  1.4km/h 6mph /  9.7km/h 96% 0in /  0.0mm 5 W/m2
08:16 37.8 °F /  3.2 °C 36.7 °F /  2.6 °C 30.1in /  1019.0hPa ESE 2mph /  3.2km/h 3mph /  4.8km/h 96% 0in /  0.0mm 5 W/m2
08:21 37.6 °F /  3.1 °C 36.5 °F /  2.5 °C 30.1in /  1019.0hPa Calm   2mph /  3.2km/h 96% 0in /  0.0mm 7 W/m2
08:26 37.6 °F /  3.1 °C 36.5 °F /  2.5 °C 30.1in /  1019.0hPa East 0.9mph /  1.4km/h 3mph /  4.8km/h 96% 0in /  0.0mm 9 W/m2
08:31 37.6 °F /  3.1 °C 36.5 °F /  2.5 °C 30.1in /  1019.0hPa East 0.9mph /  1.4km/h 3mph /  4.8km/h 96% 0in /  0.0mm 9 W/m2
08:36 37.6 °F /  3.1 °C 36.5 °F /  2.5 °C 30.1in /  1019.0hPa ENE 4mph /  6.4km/h 4mph /  6.4km/h 96% 0in /  0.0mm 12 W/m2
08:41 37.4 °F /  3 °C 36.3 °F /  2.4 °C 30.1in /  1019.0hPa Calm   4mph /  6.4km/h 96% 0in /  0.0mm 16 W/m2
08:46 37.4 °F /  3 °C 36.3 °F /  2.4 °C 30.1in /  1019.0hPa East 0.9mph /  1.4km/h 3mph /  4.8km/h 96% 0in /  0.0mm 16 W/m2
08:51 37.4 °F /  3 °C 36.3 °F /  2.4 °C 30.1in /  1019.0hPa East 0.9mph /  1.4km/h 4mph /  6.4km/h 96% 0in /  0.0mm 16 W/m2
08:56 37.4 °F /  3 °C 36.3 °F /  2.4 °C 30.1in /  1019.0hPa East 0.9mph /  1.4km/h 1mph /  1.6km/h 96% 0in /  0.0mm 21 W/m2
09:01 37.4 °F /  3 °C 36.3 °F /  2.4 °C 30.1in /  1019.3hPa Calm   3mph /  4.8km/h 96% 0in /  0.0mm 25 W/m2
09:06 37.4 °F /  3 °C 36.3 °F /  2.4 °C 30.1in /  1019.3hPa ESE 2mph /  3.2km/h 2mph /  3.2km/h 96% 0in /  0.0mm 25 W/m2
09:11 37.4 °F /  3 °C 36.3 °F /  2.4 °C 30.1in /  1019.3hPa East 0.9mph /  1.4km/h 4mph /  6.4km/h 96% 0in /  0.0mm 26 W/m2
09:16 37.4 °F /  3 °C 36.3 °F /  2.4 °C 30.1in /  1019.3hPa ESE 2mph /  3.2km/h 3mph /  4.8km/h 96% 0in /  0.0mm 32 W/m2
09:21 37.2 °F /  2.9 °C 36.1 °F /  2.3 °C 30.1in /  1019.3hPa East 2mph /  3.2km/h 4mph /  6.4km/h 96% 0in /  0.0mm 40 W/m2
09:26 37.2 °F /  2.9 °C 36.1 °F /  2.3 °C 30.1in /  1019.3hPa East 2mph /  3.2km/h 2mph /  3.2km/h 96% 0in /  0.0mm 39 W/m2
09:32 37.2 °F /  2.9 °C 36.1 °F /  2.3 °C 30.1in /  1019.3hPa ESE 0.9mph /  1.4km/h 2mph /  3.2km/h 96% 0in /  0.0mm 44 W/m2
09:37 37.4 °F /  3 °C 36.3 °F /  2.4 °C 30.1in /  1019.3hPa ESE 2mph /  3.2km/h 2mph /  3.2km/h 96% 0in /  0.0mm 35 W/m2
09:42 37.4 °F /  3 °C 36.3 °F /  2.4 °C 30.1in /  1019.3hPa East 0.9mph /  1.4km/h 3mph /  4.8km/h 96% 0in /  0.0mm 37 W/m2
09:47 37.6 °F /  3.1 °C 36.5 °F /  2.5 °C 30.1in /  1019.3hPa ENE 2mph /  3.2km/h 2mph /  3.2km/h 96% 0in /  0.0mm 42 W/m2
09:52 37.6 °F /  3.1 °C 36.5 °F /  2.5 °C 30.1in /  1019.3hPa East 0.9mph /  1.4km/h 3mph /  4.8km/h 96% 0in /  0.0mm 37 W/m2
09:57 37.4 °F /  3 °C 36.3 °F /  2.4 °C 30.1in /  1019.3hPa ENE 0.9mph /  1.4km/h 2mph /  3.2km/h 96% 0in /  0.0mm 47 W/m2
10:02 37.6 °F /  3.1 °C 36.5 °F /  2.5 °C 30.1in /  1019.3hPa ESE 2mph /  3.2km/h 2mph /  3.2km/h 96% 0in /  0.0mm 51 W/m2
10:07 37.6 °F /  3.1 °C 36.5 °F /  2.5 °C 30.1in /  1019.3hPa East 0.9mph /  1.4km/h 2mph /  3.2km/h 96% 0in /  0.0mm 62 W/m2
10:17 37.6 °F /  3.1 °C 36.5 °F /  2.5 °C 30.1in /  1019.6hPa East 0.9mph /  1.4km/h 2mph /  3.2km/h 96% 0in /  0.0mm 51 W/m2
10:22 37.8 °F /  3.2 °C 36.7 °F /  2.6 °C 30.1in /  1019.6hPa ESE 2mph /  3.2km/h 2mph /  3.2km/h 96% 0in /  0.0mm 56 W/m2
10:27 37.8 °F /  3.2 °C 36.7 °F /  2.6 °C 30.1in /  1019.6hPa NE 0.9mph /  1.4km/h 5mph /  8km/h 96% 0in /  0.0mm 65 W/m2
10:32 37.8 °F /  3.2 °C 36.7 °F /  2.6 °C 30.1in /  1019.6hPa NE 0.9mph /  1.4km/h 1mph /  1.6km/h 96% 0in /  0.0mm 62 W/m2
10:37 37.8 °F /  3.2 °C 36.7 °F /  2.6 °C 30.1in /  1019.6hPa Calm   5mph /  8km/h 96% 0in /  0.0mm 77 W/m2
10:42 37.8 °F /  3.2 °C 36.7 °F /  2.6 °C 30.1in /  1019.6hPa ENE 2mph /  3.2km/h 2mph /  3.2km/h 96% 0in /  0.0mm 84 W/m2
10:47 37.9 °F /  3.3 °C 36.9 °F /  2.7 °C 30.1in /  1019.6hPa ENE 0.9mph /  1.4km/h 2mph /  3.2km/h 96% 0in /  0.0mm 76 W/m2
10:52 37.9 °F /  3.3 °C 36.9 °F /  2.7 °C 30.1in /  1019.6hPa SE 2mph /  3.2km/h 3mph /  4.8km/h 96% 0in /  0.0mm 63 W/m2
10:57 37.9 °F /  3.3 °C 36.9 °F /  2.7 °C 30.1in /  1019.3hPa East 2mph /  3.2km/h 3mph /  4.8km/h 96% 0in /  0.0mm 70 W/m2
11:02 37.9 °F /  3.3 °C 36.9 °F /  2.7 °C 30.1in /  1019.6hPa East 0.9mph /  1.4km/h 3mph /  4.8km/h 96% 0in /  0.0mm 76 W/m2
11:07 37.8 °F /  3.2 °C 36.7 °F /  2.6 °C 30.1in /  1019.6hPa Calm   2mph /  3.2km/h 96% 0in /  0.0mm 74 W/m2
11:12 37.9 °F /  3.3 °C 36.9 °F /  2.7 °C 30.1in /  1019.3hPa East 2mph /  3.2km/h 3mph /  4.8km/h 96% 0in /  0.0mm 93 W/m2
11:22 37.9 °F /  3.3 °C 36.9 °F /  2.7 °C 30.1in /  1019.3hPa East 0.9mph /  1.4km/h 2mph /  3.2km/h 96% 0in /  0.0mm 97 W/m2
11:27 38.1 °F /  3.4 °C 37 °F /  2.8 °C 30.1in /  1019.3hPa NE 0.9mph /  1.4km/h 2mph /  3.2km/h 96% 0in /  0.0mm 105 W/m2
11:32 38.3 °F /  3.5 °C 37.2 °F /  2.9 °C 30.1in /  1019.3hPa Calm   2mph /  3.2km/h 96% 0in /  0.0mm 120 W/m2
11:37 38.5 °F /  3.6 °C 37.4 °F /  3 °C 30.1in /  1019.3hPa East 2mph /  3.2km/h 2mph /  3.2km/h 96% 0in /  0.0mm 141 W/m2
11:42 38.7 °F /  3.7 °C 37.6 °F /  3.1 °C 30.1in /  1019.3hPa Calm   1mph /  1.6km/h 96% 0in /  0.0mm 123 W/m2
11:47 38.7 °F /  3.7 °C 37.6 °F /  3.1 °C 30.1in /  1019.0hPa Calm     96% 0in /  0.0mm 79 W/m2
11:52 38.8 °F /  3.8 °C 37.8 °F /  3.2 °C 30.1in /  1019.0hPa Calm     96% 0in /  0.0mm 69 W/m2
11:57 38.8 °F /  3.8 °C 37.8 °F /  3.2 °C 30.1in /  1019.0hPa Calm   1mph /  1.6km/h 96% 0in /  0.0mm 109 W/m2
12:02 39 °F /  3.9 °C 37.9 °F /  3.3 °C 30.1in /  1019.0hPa NNW 2mph /  3.2km/h 3mph /  4.8km/h 96% 0in /  0.0mm 104 W/m2
12:07 39.4 °F /  4.1 °C 38.1 °F /  3.4 °C 30.1in /  1019.0hPa Calm     95% 0in /  0.0mm 86 W/m2
12:12 39.6 °F /  4.2 °C 38.5 °F /  3.6 °C 30.1in /  1019.0hPa Calm   2mph /  3.2km/h 96% 0in /  0.0mm 54 W/m2
12:17 39.7 °F /  4.3 °C 38.5 °F /  3.6 °C 30.1in /  1019.0hPa Calm     95% 0in /  0.0mm 70 W/m2
12:22 39.9 °F /  4.4 °C 38.7 °F /  3.7 °C 30.1in /  1019.0hPa ENE 0.9mph /  1.4km/h 1mph /  1.6km/h 95% 0in /  0.0mm 74 W/m2
12:27 40.3 °F /  4.6 °C 39 °F /  3.9 °C 30.1in /  1019.0hPa SSW 0.9mph /  1.4km/h 2mph /  3.2km/h 95% 0in /  0.0mm 72 W/m2
12:32 40.5 °F /  4.7 °C 38.8 °F /  3.8 °C 30.1in /  1019.0hPa Calm   1mph /  1.6km/h 94% 0in /  0.0mm 70 W/m2
12:37 40.5 °F /  4.7 °C 38.8 °F /  3.8 °C 30.1in /  1019.0hPa Calm   2mph /  3.2km/h 94% 0in /  0.0mm 70 W/m2
12:42 40.6 °F /  4.8 °C 39 °F /  3.9 °C 30.1in /  1019.0hPa Calm   1mph /  1.6km/h 94% 0in /  0.0mm 70 W/m2
12:47 40.8 °F /  4.9 °C 39.2 °F /  4 °C 30.1in /  1019.0hPa Calm   2mph /  3.2km/h 94% 0in /  0.0mm 58 W/m2
12:52 41 °F /  5 °C 39.4 °F /  4.1 °C 30.1in /  1019.0hPa Calm   2mph /  3.2km/h 94% 0in /  0.0mm 56 W/m2
12:57 41.4 °F /  5.2 °C 39.6 °F /  4.2 °C 30.1in /  1019.0hPa Calm     93% 0in /  0.0mm 60 W/m2
13:02 41.4 °F /  5.2 °C 39.6 °F /  4.2 °C 30.1in /  1019.0hPa Calm   2mph /  3.2km/h 93% 0in /  0.0mm 63 W/m2
13:07 41.5 °F /  5.3 °C 39.7 °F /  4.3 °C 30.1in /  1019.0hPa Calm     93% 0in /  0.0mm 63 W/m2
13:12 41.7 °F /  5.4 °C 39.9 °F /  4.4 °C 30.1in /  1018.6hPa Calm     93% 0in /  0.0mm 63 W/m2
13:17 41.7 °F /  5.4 °C 39.6 °F /  4.2 °C 30.1in /  1018.6hPa Calm     92% 0in /  0.0mm 69 W/m2
13:22 42.1 °F /  5.6 °C 39.9 °F /  4.4 °C 30.1in /  1018.6hPa Calm     92% 0in /  0.0mm 74 W/m2
13:27 42.1 °F /  5.6 °C 39.9 °F /  4.4 °C 30.1in /  1018.6hPa Calm   1mph /  1.6km/h 92% 0in /  0.0mm 81 W/m2
13:32 42.4 °F /  5.8 °C 40.3 °F /  4.6 °C 30.1in /  1018.6hPa Calm     92% 0in /  0.0mm 90 W/m2
13:37 42.6 °F /  5.9 °C 40.1 °F /  4.5 °C 30.1in /  1018.6hPa East 2mph /  3.2km/h 2mph /  3.2km/h 91% 0in /  0.0mm 97 W/m2
13:42 42.8 °F /  6 °C 40.3 °F /  4.6 °C 30.1in /  1019.0hPa Calm   1mph /  1.6km/h 91% 0in /  0.0mm 90 W/m2
13:47 43.2 °F /  6.2 °C 40.5 °F /  4.7 °C 30.1in /  1018.6hPa Calm     90% 0in /  0.0mm 83 W/m2
13:52 43.2 °F /  6.2 °C 40.5 °F /  4.7 °C 30.1in /  1018.6hPa Calm   1mph /  1.6km/h 90% 0in /  0.0mm 77 W/m2
13:57 43.3 °F /  6.3 °C 40.6 °F /  4.8 °C 30.1in /  1018.6hPa Calm     90% 0in /  0.0mm 72 W/m2
14:02 43.5 °F /  6.4 °C 40.8 °F /  4.9 °C 30.1in /  1018.6hPa Calm     90% 0in /  0.0mm 69 W/m2
14:07 43.5 °F /  6.4 °C 40.5 °F /  4.7 °C 30.1in /  1018.6hPa Calm     89% 0in /  0.0mm 67 W/m2
14:13 43.7 °F /  6.5 °C 40.6 °F /  4.8 °C 30.1in /  1018.6hPa Calm     89% 0in /  0.0mm 67 W/m2
14:18 43.9 °F /  6.6 °C 41.2 °F /  5.1 °C 30.1in /  1018.3hPa Calm     90% 0in /  0.0mm 63 W/m2
14:23 43.9 °F /  6.6 °C 41.2 °F /  5.1 °C 30.1in /  1018.3hPa Calm     90% 0in /  0.0mm 60 W/m2
14:28 43.9 °F /  6.6 °C 41.2 °F /  5.1 °C 30.1in /  1018.6hPa Calm     90% 0in /  0.0mm 54 W/m2
14:33 44.1 °F /  6.7 °C 41.4 °F /  5.2 °C 30.1in /  1018.3hPa Calm     90% 0in /  0.0mm 49 W/m2
14:38 43.9 °F /  6.6 °C 41.2 °F /  5.1 °C 30.1in /  1018.3hPa Calm     90% 0in /  0.0mm 42 W/m2
14:48 43.9 °F /  6.6 °C 41.4 °F /  5.2 °C 30.1in /  1018.3hPa Calm     91% 0in /  0.0mm 40 W/m2
14:53 43.9 °F /  6.6 °C 41.4 °F /  5.2 °C 30.1in /  1018.3hPa Calm     91% 0in /  0.0mm 35 W/m2
14:58 43.9 °F /  6.6 °C 41.4 °F /  5.2 °C 30.1in /  1018.3hPa Calm     91% 0in /  0.0mm 33 W/m2
15:03 43.7 °F /  6.5 °C 41.2 °F /  5.1 °C 30.1in /  1018.3hPa Calm     91% 0in /  0.0mm 33 W/m2
15:08 43.7 °F /  6.5 °C 41.2 °F /  5.1 °C 30.1in /  1018.3hPa Calm     91% 0in /  0.0mm 37 W/m2
15:13 43.5 °F /  6.4 °C 41 °F /  5 °C 30.1in /  1018.3hPa Calm     91% 0in /  0.0mm 35 W/m2
15:18 43.5 °F /  6.4 °C 41.4 °F /  5.2 °C 30.1in /  1018.3hPa Calm     92% 0in /  0.0mm 39 W/m2
15:23 43.7 °F /  6.5 °C 41.5 °F /  5.3 °C 30.1in /  1018.3hPa Calm     92% 0in /  0.0mm 46 W/m2
15:28 43.9 °F /  6.6 °C 41.7 °F /  5.4 °C 30.1in /  1018.3hPa Calm     92% 0in /  0.0mm 53 W/m2
15:33 44.1 °F /  6.7 °C 41.9 °F /  5.5 °C 30.1in /  1018.3hPa Calm   1mph /  1.6km/h 92% 0in /  0.0mm 54 W/m2
15:38 44.1 °F /  6.7 °C 41.9 °F /  5.5 °C 30.1in /  1018.3hPa Calm     92% 0in /  0.0mm 53 W/m2
15:43 44.2 °F /  6.8 °C 42.1 °F /  5.6 °C 30.1in /  1018.3hPa Calm     92% 0in /  0.0mm 46 W/m2
15:48 44.2 °F /  6.8 °C 42.1 °F /  5.6 °C 30.1in /  1018.3hPa Calm     92% 0in /  0.0mm 39 W/m2
15:53 44.2 °F /  6.8 °C 42.1 °F /  5.6 °C 30.1in /  1018.3hPa Calm     92% 0in /  0.0mm 32 W/m2
15:58 44.2 °F /  6.8 °C 42.1 °F /  5.6 °C 30.1in /  1018.3hPa Calm     92% 0in /  0.0mm 28 W/m2
16:03 44.2 °F /  6.8 °C 42.1 °F /  5.6 °C 30.1in /  1018.3hPa Calm     92% 0in /  0.0mm 25 W/m2
16:08 44.1 °F /  6.7 °C 41.9 °F /  5.5 °C 30.1in /  1018.3hPa Calm     92% 0in /  0.0mm 21 W/m2
16:13 44.1 °F /  6.7 °C 42.1 °F /  5.6 °C 30.1in /  1018.3hPa Calm     93% 0in /  0.0mm 18 W/m2
16:18 44.1 °F /  6.7 °C 42.1 °F /  5.6 °C 30.1in /  1018.3hPa Calm     93% 0in /  0.0mm 16 W/m2
16:23 44.1 °F /  6.7 °C 41.9 °F /  5.5 °C 30.1in /  1018.6hPa Calm     92% 0in /  0.0mm 12 W/m2
16:28 43.9 °F /  6.6 °C 41.7 °F /  5.4 °C 30.1in /  1018.6hPa Calm     92% 0in /  0.0mm 11 W/m2
16:33 43.9 °F /  6.6 °C 41.7 °F /  5.4 °C 30.1in /  1018.3hPa Calm     92% 0in /  0.0mm 7 W/m2
16:38 43.5 °F /  6.4 °C 41.7 °F /  5.4 °C 30.1in /  1018.3hPa Calm     93% 0in /  0.0mm 5 W/m2
16:43 43.3 °F /  6.3 °C 41.5 °F /  5.3 °C 30.1in /  1018.3hPa Calm     93% 0in /  0.0mm 0 W/m2
16:48 43.3 °F /  6.3 °C 41.2 °F /  5.1 °C 30.1in /  1018.3hPa Calm     92% 0in /  0.0mm 0 W/m2
16:53 43.2 °F /  6.2 °C 41.4 °F /  5.2 °C 30.1in /  1018.3hPa Calm     93% 0in /  0.0mm 0 W/m2
16:58 43 °F /  6.1 °C 41.2 °F /  5.1 °C 30.1in /  1018.6hPa Calm     93% 0in /  0.0mm 0 W/m2
17:03 42.8 °F /  6 °C 41 °F /  5 °C 30.1in /  1018.6hPa Calm     93% 0in /  0.0mm 0 W/m2
17:08 42.6 °F /  5.9 °C 40.8 °F /  4.9 °C 30.1in /  1018.6hPa Calm     93% 0in /  0.0mm 0 W/m2
17:13 42.4 °F /  5.8 °C 40.6 °F /  4.8 °C 30.1in /  1018.6hPa Calm     93% 0in /  0.0mm 0 W/m2
17:18 42.4 °F /  5.8 °C 40.6 °F /  4.8 °C 30.1in /  1018.6hPa Calm     93% 0in /  0.0mm 0 W/m2
17:23 42.3 °F /  5.7 °C 40.6 °F /  4.8 °C 30.1in /  1018.6hPa Calm   1mph /  1.6km/h 94% 0in /  0.0mm 0 W/m2
17:28 42.3 °F /  5.7 °C 40.6 °F /  4.8 °C 30.1in /  1018.6hPa Calm     94% 0in /  0.0mm 0 W/m2
17:33 42.1 °F /  5.6 °C 40.5 °F /  4.7 °C 30.1in /  1018.6hPa Calm   1mph /  1.6km/h 94% 0in /  0.0mm 0 W/m2
17:38 41.9 °F /  5.5 °C 40.3 °F /  4.6 °C 30.1in /  1018.6hPa Calm     94% 0in /  0.0mm 0 W/m2
17:43 41.7 °F /  5.4 °C 40.1 °F /  4.5 °C 30.1in /  1018.6hPa Calm     94% 0in /  0.0mm 0 W/m2
17:48 41.5 °F /  5.3 °C 39.9 °F /  4.4 °C 30.1in /  1018.6hPa Calm     94% 0in /  0.0mm 0 W/m2
17:53 41.5 °F /  5.3 °C 39.9 °F /  4.4 °C 30.1in /  1018.6hPa Calm     94% 0in /  0.0mm 0 W/m2
17:58 41.4 °F /  5.2 °C 39.7 °F /  4.3 °C 30.1in /  1018.6hPa Calm     94% 0in /  0.0mm 0 W/m2
18:04 41.2 °F /  5.1 °C 39.6 °F /  4.2 °C 30.1in /  1019.0hPa Calm     94% 0in /  0.0mm 0 W/m2
18:09 41 °F /  5 °C 39.4 °F /  4.1 °C 30.1in /  1019.0hPa Calm     94% 0in /  0.0mm 0 W/m2
18:14 40.8 °F /  4.9 °C 39.2 °F /  4 °C 30.1in /  1019.0hPa Calm     94% 0in /  0.0mm 0 W/m2
18:19 40.8 °F /  4.9 °C 39.2 °F /  4 °C 30.1in /  1019.0hPa Calm     94% 0in /  0.0mm 0 W/m2
18:24 40.6 °F /  4.8 °C 39 °F /  3.9 °C 30.1in /  1019.0hPa Calm     94% 0in /  0.0mm 0 W/m2
18:29 40.5 °F /  4.7 °C 38.8 °F /  3.8 °C 30.1in /  1019.0hPa Calm     94% 0in /  0.0mm 0 W/m2
18:34 40.5 °F /  4.7 °C 39.2 °F /  4 °C 30.1in /  1019.0hPa Calm     95% 0in /  0.0mm 0 W/m2
18:39 40.5 °F /  4.7 °C 39.2 °F /  4 °C 30.1in /  1019.0hPa Calm     95% 0in /  0.0mm 0 W/m2
18:44 40.5 °F /  4.7 °C 39.2 °F /  4 °C 30.1in /  1019.0hPa Calm     95% 0in /  0.0mm 0 W/m2
18:49 40.5 °F /  4.7 °C 39.2 °F /  4 °C 30.1in /  1019.0hPa Calm     95% 0in /  0.0mm 0 W/m2
18:54 40.5 °F /  4.7 °C 39.2 °F /  4 °C 30.1in /  1019.0hPa Calm     95% 0in /  0.0mm 0 W/m2
18:59 40.5 °F /  4.7 °C 39.2 °F /  4 °C 30.1in /  1019.0hPa Calm     95% 0in /  0.0mm 0 W/m2
19:09 40.1 °F /  4.5 °C 38.8 °F /  3.8 °C 30.1in /  1019.0hPa Calm     95% 0in /  0.0mm 0 W/m2
19:14 39.9 °F /  4.4 °C 38.7 °F /  3.7 °C 30.1in /  1019.0hPa Calm     95% 0in /  0.0mm 0 W/m2
19:19 39.7 °F /  4.3 °C 38.5 °F /  3.6 °C 30.1in /  1019.0hPa Calm     95% 0in /  0.0mm 0 W/m2
19:24 39.7 °F /  4.3 °C 38.5 °F /  3.6 °C 30.1in /  1019.0hPa Calm     95% 0in /  0.0mm 0 W/m2
19:29 39.6 °F /  4.2 °C 38.3 °F /  3.5 °C 30.1in /  1019.0hPa Calm     95% 0in /  0.0mm 0 W/m2
19:34 39.4 °F /  4.1 °C 38.1 °F /  3.4 °C 30.1in /  1019.3hPa Calm     95% 0in /  0.0mm 0 W/m2
19:39 39.2 °F /  4 °C 37.9 °F /  3.3 °C 30.1in /  1019.0hPa Calm     95% 0in /  0.0mm 0 W/m2
19:44 39 °F /  3.9 °C 37.8 °F /  3.2 °C 30.1in /  1019.3hPa Calm     95% 0in /  0.0mm 0 W/m2
19:49 38.8 °F /  3.8 °C 37.6 °F /  3.1 °C 30.1in /  1019.3hPa Calm     95% 0in /  0.0mm 0 W/m2
19:54 38.8 °F /  3.8 °C 37.6 °F /  3.1 °C 30.1in /  1019.3hPa Calm     95% 0in /  0.0mm 0 W/m2
19:59 38.7 °F /  3.7 °C 37.4 °F /  3 °C 30.1in /  1019.3hPa NE 0.9mph /  1.4km/h 1mph /  1.6km/h 95% 0in /  0.0mm 0 W/m2
20:04 38.7 °F /  3.7 °C 37.4 °F /  3 °C 30.1in /  1019.3hPa Calm     95% 0in /  0.0mm 0 W/m2
20:09 38.7 °F /  3.7 °C 37.4 °F /  3 °C 30.1in /  1019.3hPa Calm     95% 0in /  0.0mm 0 W/m2
20:14 38.7 °F /  3.7 °C 37.4 °F /  3 °C 30.1in /  1019.3hPa Calm     95% 0in /  0.0mm 0 W/m2
20:19 38.5 °F /  3.6 °C 37.2 °F /  2.9 °C 30.1in /  1019.3hPa Calm     95% 0in /  0.0mm 0 W/m2
20:24 38.3 °F /  3.5 °C 37 °F /  2.8 °C 30.1in /  1019.3hPa Calm     95% 0in /  0.0mm 0 W/m2
20:29 38.1 °F /  3.4 °C 36.9 °F /  2.7 °C 30.1in /  1019.3hPa Calm     95% 0in /  0.0mm 0 W/m2
20:34 38.1 °F /  3.4 °C 36.9 °F /  2.7 °C 30.1in /  1019.3hPa Calm     95% 0in /  0.0mm 0 W/m2
20:39 37.9 °F /  3.3 °C 36.7 °F /  2.6 °C 30.1in /  1019.6hPa Calm     95% 0in /  0.0mm 0 W/m2
20:44 37.9 °F /  3.3 °C 36.7 °F /  2.6 °C 30.1in /  1019.6hPa Calm     95% 0in /  0.0mm 0 W/m2
20:49 37.8 °F /  3.2 °C 36.7 °F /  2.6 °C 30.1in /  1019.6hPa Calm     96% 0in /  0.0mm 0 W/m2
20:54 37.8 °F /  3.2 °C 36.7 °F /  2.6 °C 30.1in /  1019.6hPa Calm     96% 0in /  0.0mm 0 W/m2
20:59 37.8 °F /  3.2 °C 36.5 °F /  2.5 °C 30.1in /  1019.6hPa Calm     95% 0in /  0.0mm 0 W/m2
21:04 37.8 °F /  3.2 °C 36.7 °F /  2.6 °C 30.1in /  1019.6hPa Calm     96% 0in /  0.0mm 0 W/m2
21:09 37.6 °F /  3.1 °C 36.5 °F /  2.5 °C 30.1in /  1019.6hPa Calm     96% 0in /  0.0mm 0 W/m2
21:14 37.6 °F /  3.1 °C 36.5 °F /  2.5 °C 30.1in /  1019.6hPa Calm     96% 0in /  0.0mm 0 W/m2
21:19 37.6 °F /  3.1 °C 36.5 °F /  2.5 °C 30.1in /  1019.6hPa Calm     96% 0in /  0.0mm 0 W/m2
21:24 37.2 °F /  2.9 °C 36.1 °F /  2.3 °C 30.1in /  1019.6hPa Calm     96% 0in /  0.0mm 0 W/m2
21:29 37.2 °F /  2.9 °C 36.1 °F /  2.3 °C 30.1in /  1019.6hPa Calm     96% 0in /  0.0mm 0 W/m2
21:34 37 °F /  2.8 °C 36 °F /  2.2 °C 30.1in /  1019.6hPa Calm     96% 0in /  0.0mm 0 W/m2
21:39 37 °F /  2.8 °C 36 °F /  2.2 °C 30.1in /  1019.6hPa Calm     96% 0in /  0.0mm 0 W/m2
21:44 36.9 °F /  2.7 °C 35.8 °F /  2.1 °C 30.1in /  1020.0hPa Calm     96% 0in /  0.0mm 0 W/m2
21:49 36.9 °F /  2.7 °C 35.8 °F /  2.1 °C 30.1in /  1020.0hPa Calm     96% 0in /  0.0mm 0 W/m2
21:54 36.7 °F /  2.6 °C 35.6 °F /  2 °C 30.1in /  1020.0hPa Calm     96% 0in /  0.0mm 0 W/m2
21:59 36.7 °F /  2.6 °C 35.6 °F /  2 °C 30.1in /  1020.0hPa Calm     96% 0in /  0.0mm 0 W/m2
22:04 36.5 °F /  2.5 °C 35.4 °F /  1.9 °C 30.1in /  1020.0hPa Calm     96% 0in /  0.0mm 0 W/m2
22:09 36.3 °F /  2.4 °C 35.2 °F /  1.8 °C 30.1in /  1020.0hPa Calm     96% 0in /  0.0mm 0 W/m2
22:14 36.3 °F /  2.4 °C 35.2 °F /  1.8 °C 30.1in /  1020.3hPa Calm     96% 0in /  0.0mm 0 W/m2
22:19 36.3 °F /  2.4 °C 35.2 °F /  1.8 °C 30.1in /  1020.3hPa Calm     96% 0in /  0.0mm 0 W/m2
22:25 36.3 °F /  2.4 °C 35.2 °F /  1.8 °C 30.1in /  1020.3hPa Calm     96% 0in /  0.0mm 0 W/m2
22:30 36.1 °F /  2.3 °C 35.1 °F /  1.7 °C 30.1in /  1020.3hPa Calm     96% 0in /  0.0mm 0 W/m2
22:35 36 °F /  2.2 °C 34.9 °F /  1.6 °C 30.1in /  1020.3hPa Calm     96% 0in /  0.0mm 0 W/m2
22:40 35.8 °F /  2.1 °C 34.7 °F /  1.5 °C 30.1in /  1020.3hPa Calm     96% 0in /  0.0mm 0 W/m2
22:45 35.8 °F /  2.1 °C 34.7 °F /  1.5 °C 30.1in /  1020.3hPa Calm     96% 0in /  0.0mm 0 W/m2
22:50 35.6 °F /  2 °C 34.5 °F /  1.4 °C 30.1in /  1020.3hPa Calm     96% 0in /  0.0mm 0 W/m2
22:55 35.6 °F /  2 °C 34.5 °F /  1.4 °C 30.1in /  1020.3hPa Calm     96% 0in /  0.0mm 0 W/m2
23:00 35.6 °F /  2 °C 34.5 °F /  1.4 °C 30.1in /  1020.3hPa Calm     96% 0in /  0.0mm 0 W/m2
23:05 35.6 °F /  2 °C 34.5 °F /  1.4 °C 30.1in /  1020.3hPa Calm     96% 0in /  0.0mm 0 W/m2
23:10 35.6 °F /  2 °C 34.5 °F /  1.4 °C 30.1in /  1020.3hPa Calm     96% 0in /  0.0mm 0 W/m2
23:15 35.4 °F /  1.9 °C 34.3 °F /  1.3 °C 30.1in /  1020.3hPa Calm     96% 0in /  0.0mm 0 W/m2
23:20 35.4 °F /  1.9 °C 34.3 °F /  1.3 °C 30.1in /  1020.3hPa Calm     96% 0in /  0.0mm 0 W/m2
23:25 35.4 °F /  1.9 °C 34.3 °F /  1.3 °C 30.1in /  1020.3hPa Calm     96% 0in /  0.0mm 0 W/m2
23:30 35.8 °F /  2.1 °C 34.7 °F /  1.5 °C 30.1in /  1020.7hPa Calm     96% 0in /  0.0mm 0 W/m2
23:35 35.6 °F /  2 °C 34.5 °F /  1.4 °C 30.1in /  1020.7hPa Calm     96% 0in /  0.0mm 0 W/m2
23:40 35.4 °F /  1.9 °C 34.3 °F /  1.3 °C 30.1in /  1020.7hPa Calm     96% 0in /  0.0mm 0 W/m2
23:45 35.2 °F /  1.8 °C 34.2 °F /  1.2 °C 30.1in /  1020.7hPa Calm     96% 0in /  0.0mm 0 W/m2
23:50 35.2 °F /  1.8 °C 34.2 °F /  1.2 °C 30.1in /  1020.7hPa Calm     96% 0in /  0.0mm 0 W/m2
23:55 35.1 °F /  1.7 °C 34 °F /  1.1 °C 30.1in /  1020.7hPa Calm     96% 0in /  0.0mm 0 W/m2
Juneau County Weather
Compliments of Weather Underground - 4 mb